sensor_id;sensor_type;location;lat;lon;timestamp;temperature;humidity
14755;DHT22;7469;50.906;6.952;2022-10-16T00:02:22;14.70;99.90
14755;DHT22;7469;50.906;6.952;2022-10-16T00:04:50;14.70;99.90
14755;DHT22;7469;50.906;6.952;2022-10-16T00:07:19;14.70;99.90
14755;DHT22;7469;50.906;6.952;2022-10-16T00:09:47;14.70;99.90
14755;DHT22;7469;50.906;6.952;2022-10-16T00:12:15;14.70;99.90
14755;DHT22;7469;50.906;6.952;2022-10-16T00:14:44;14.70;99.90
14755;DHT22;7469;50.906;6.952;2022-10-16T00:17:12;14.70;99.90
14755;DHT22;7469;50.906;6.952;2022-10-16T00:19:40;14.70;99.90
14755;DHT22;7469;50.906;6.952;2022-10-16T00:22:08;14.70;99.90
14755;DHT22;7469;50.906;6.952;2022-10-16T00:24:37;14.60;99.90
14755;DHT22;7469;50.906;6.952;2022-10-16T00:27:05;14.60;99.90
14755;DHT22;7469;50.906;6.952;2022-10-16T00:29:33;14.60;99.90
14755;DHT22;7469;50.906;6.952;2022-10-16T00:32:01;14.60;99.90
14755;DHT22;7469;50.906;6.952;2022-10-16T00:34:29;14.60;99.90
14755;DHT22;7469;50.906;6.952;2022-10-16T00:36:57;14.60;99.90
14755;DHT22;7469;50.906;6.952;2022-10-16T00:39:25;14.60;99.90
14755;DHT22;7469;50.906;6.952;2022-10-16T00:41:55;14.60;99.90
14755;DHT22;7469;50.906;6.952;2022-10-16T00:44:43;14.50;99.90
14755;DHT22;7469;50.906;6.952;2022-10-16T00:47:14;14.50;99.90
14755;DHT22;7469;50.906;6.952;2022-10-16T00:49:43;14.50;99.90
14755;DHT22;7469;50.906;6.952;2022-10-16T00:52:12;14.50;99.90
14755;DHT22;7469;50.906;6.952;2022-10-16T00:54:40;14.50;99.90
14755;DHT22;7469;50.906;6.952;2022-10-16T00:57:10;14.50;99.90
14755;DHT22;7469;50.906;6.952;2022-10-16T00:59:39;14.50;99.90
14755;DHT22;7469;50.906;6.952;2022-10-16T01:02:10;14.50;99.90
14755;DHT22;7469;50.906;6.952;2022-10-16T01:04:41;14.50;99.90
14755;DHT22;7469;50.906;6.952;2022-10-16T01:07:14;14.50;99.90
14755;DHT22;7469;50.906;6.952;2022-10-16T01:09:53;14.40;99.90
14755;DHT22;7469;50.906;6.952;2022-10-16T01:12:33;14.40;99.90
14755;DHT22;7469;50.906;6.952;2022-10-16T01:15:08;14.40;99.90
14755;DHT22;7469;50.906;6.952;2022-10-16T01:17:43;14.40;99.90
14755;DHT22;7469;50.906;6.952;2022-10-16T01:20:21;14.40;99.90
14755;DHT22;7469;50.906;6.952;2022-10-16T01:23:08;14.40;99.90
14755;DHT22;7469;50.906;6.952;2022-10-16T01:25:49;14.40;99.90
14755;DHT22;7469;50.906;6.952;2022-10-16T01:28:24;14.30;99.90
14755;DHT22;7469;50.906;6.952;2022-10-16T01:30:58;14.30;99.90
14755;DHT22;7469;50.906;6.952;2022-10-16T01:33:30;14.30;99.90
14755;DHT22;7469;50.906;6.952;2022-10-16T01:36:04;14.30;99.90
14755;DHT22;7469;50.906;6.952;2022-10-16T01:38:37;14.20;99.90
14755;DHT22;7469;50.906;6.952;2022-10-16T01:41:09;14.20;99.90
14755;DHT22;7469;50.906;6.952;2022-10-16T01:43:42;14.30;99.90
14755;DHT22;7469;50.906;6.952;2022-10-16T01:46:14;14.20;99.90
14755;DHT22;7469;50.906;6.952;2022-10-16T01:48:44;14.20;99.90
14755;DHT22;7469;50.906;6.952;2022-10-16T01:51:14;14.20;99.90
14755;DHT22;7469;50.906;6.952;2022-10-16T01:53:47;14.20;99.90
14755;DHT22;7469;50.906;6.952;2022-10-16T01:56:17;14.10;99.90
14755;DHT22;7469;50.906;6.952;2022-10-16T01:58:53;14.10;99.90
14755;DHT22;7469;50.906;6.952;2022-10-16T02:01:23;14.10;99.90
14755;DHT22;7469;50.906;6.952;2022-10-16T02:03:54;14.10;99.90
14755;DHT22;7469;50.906;6.952;2022-10-16T02:06:23;14.10;99.90
14755;DHT22;7469;50.906;6.952;2022-10-16T02:08:53;14.10;99.90
14755;DHT22;7469;50.906;6.952;2022-10-16T02:11:21;14.10;99.90
14755;DHT22;7469;50.906;6.952;2022-10-16T02:13:55;14.10;99.90
14755;DHT22;7469;50.906;6.952;2022-10-16T02:16:32;14.20;99.90
14755;DHT22;7469;50.906;6.952;2022-10-16T02:19:00;14.20;99.90
14755;DHT22;7469;50.906;6.952;2022-10-16T02:21:33;14.20;99.90
14755;DHT22;7469;50.906;6.952;2022-10-16T02:24:06;14.20;99.90
14755;DHT22;7469;50.906;6.952;2022-10-16T02:26:39;14.30;99.90
14755;DHT22;7469;50.906;6.952;2022-10-16T02:29:12;14.30;99.90
14755;DHT22;7469;50.906;6.952;2022-10-16T02:31:44;14.30;99.90
14755;DHT22;7469;50.906;6.952;2022-10-16T02:34:15;14.30;99.90
14755;DHT22;7469;50.906;6.952;2022-10-16T02:36:44;14.30;99.90
14755;DHT22;7469;50.906;6.952;2022-10-16T02:39:14;14.40;99.90
14755;DHT22;7469;50.906;6.952;2022-10-16T02:41:42;14.40;99.90
14755;DHT22;7469;50.906;6.952;2022-10-16T02:44:12;14.40;99.90
14755;DHT22;7469;50.906;6.952;2022-10-16T02:46:40;14.40;99.90
14755;DHT22;7469;50.906;6.952;2022-10-16T02:49:07;14.40;99.90
14755;DHT22;7469;50.906;6.952;2022-10-16T02:51:35;14.40;99.90
14755;DHT22;7469;50.906;6.952;2022-10-16T02:54:03;14.40;99.90
14755;DHT22;7469;50.906;6.952;2022-10-16T02:56:31;14.50;99.90
14755;DHT22;7469;50.906;6.952;2022-10-16T02:58:59;14.40;99.90
14755;DHT22;7469;50.906;6.952;2022-10-16T03:01:29;14.50;99.90
14755;DHT22;7469;50.906;6.952;2022-10-16T03:03:57;14.50;99.90
14755;DHT22;7469;50.906;6.952;2022-10-16T03:06:24;14.50;99.90
14755;DHT22;7469;50.906;6.952;2022-10-16T03:08:52;14.50;99.90
14755;DHT22;7469;50.906;6.952;2022-10-16T03:11:20;14.50;99.90
14755;DHT22;7469;50.906;6.952;2022-10-16T03:13:48;14.40;99.90
14755;DHT22;7469;50.906;6.952;2022-10-16T03:16:16;14.40;99.90
14755;DHT22;7469;50.906;6.952;2022-10-16T03:18:48;14.40;99.90
14755;DHT22;7469;50.906;6.952;2022-10-16T03:21:17;14.40;99.90
14755;DHT22;7469;50.906;6.952;2022-10-16T03:23:45;14.30;99.90
14755;DHT22;7469;50.906;6.952;2022-10-16T03:26:13;14.40;99.90
14755;DHT22;7469;50.906;6.952;2022-10-16T03:28:41;14.30;99.90
14755;DHT22;7469;50.906;6.952;2022-10-16T03:31:09;14.30;99.90
14755;DHT22;7469;50.906;6.952;2022-10-16T03:33:37;14.30;99.90
14755;DHT22;7469;50.906;6.952;2022-10-16T03:36:06;14.30;99.90
14755;DHT22;7469;50.906;6.952;2022-10-16T03:38:34;14.30;99.90
14755;DHT22;7469;50.906;6.952;2022-10-16T03:41:02;14.30;99.90
14755;DHT22;7469;50.906;6.952;2022-10-16T03:43:30;14.30;99.90
14755;DHT22;7469;50.906;6.952;2022-10-16T03:45:58;14.30;99.90
14755;DHT22;7469;50.906;6.952;2022-10-16T03:48:26;14.30;99.90
14755;DHT22;7469;50.906;6.952;2022-10-16T03:50:54;14.30;99.90
14755;DHT22;7469;50.906;6.952;2022-10-16T03:53:23;14.30;99.90
14755;DHT22;7469;50.906;6.952;2022-10-16T03:55:51;14.30;99.90
14755;DHT22;7469;50.906;6.952;2022-10-16T03:58:19;14.30;99.90
14755;DHT22;7469;50.906;6.952;2022-10-16T04:00:48;14.40;99.90
14755;DHT22;7469;50.906;6.952;2022-10-16T04:03:16;14.40;99.90
14755;DHT22;7469;50.906;6.952;2022-10-16T04:05:45;14.40;99.90
14755;DHT22;7469;50.906;6.952;2022-10-16T04:08:13;14.40;99.90
14755;DHT22;7469;50.906;6.952;2022-10-16T04:10:43;14.40;99.90
14755;DHT22;7469;50.906;6.952;2022-10-16T04:13:11;14.40;99.90
14755;DHT22;7469;50.906;6.952;2022-10-16T04:15:39;14.40;99.90
14755;DHT22;7469;50.906;6.952;2022-10-16T04:18:08;14.50;99.90
14755;DHT22;7469;50.906;6.952;2022-10-16T04:20:35;14.50;99.90
14755;DHT22;7469;50.906;6.952;2022-10-16T04:23:03;14.50;99.90
14755;DHT22;7469;50.906;6.952;2022-10-16T04:25:31;14.50;99.90
14755;DHT22;7469;50.906;6.952;2022-10-16T04:28:01;14.50;99.90
14755;DHT22;7469;50.906;6.952;2022-10-16T04:30:29;14.50;99.90
14755;DHT22;7469;50.906;6.952;2022-10-16T04:32:57;14.50;99.90
14755;DHT22;7469;50.906;6.952;2022-10-16T04:35:30;14.50;99.90
14755;DHT22;7469;50.906;6.952;2022-10-16T04:37:58;14.50;99.90
14755;DHT22;7469;50.906;6.952;2022-10-16T04:40:26;14.50;99.90
14755;DHT22;7469;50.906;6.952;2022-10-16T04:42:54;14.50;99.90
14755;DHT22;7469;50.906;6.952;2022-10-16T04:45:23;14.50;99.90
14755;DHT22;7469;50.906;6.952;2022-10-16T04:47:51;14.50;99.90
14755;DHT22;7469;50.906;6.952;2022-10-16T04:50:19;14.50;99.90
14755;DHT22;7469;50.906;6.952;2022-10-16T04:52:47;14.50;99.90
14755;DHT22;7469;50.906;6.952;2022-10-16T04:55:15;14.50;99.90
14755;DHT22;7469;50.906;6.952;2022-10-16T04:57:43;14.50;99.90
14755;DHT22;7469;50.906;6.952;2022-10-16T05:00:12;14.40;99.90
14755;DHT22;7469;50.906;6.952;2022-10-16T05:02:41;14.50;99.90
14755;DHT22;7469;50.906;6.952;2022-10-16T05:05:09;14.40;99.90
14755;DHT22;7469;50.906;6.952;2022-10-16T05:07:38;14.40;99.90
14755;DHT22;7469;50.906;6.952;2022-10-16T05:10:06;14.40;99.90
14755;DHT22;7469;50.906;6.952;2022-10-16T05:12:34;14.40;99.90
14755;DHT22;7469;50.906;6.952;2022-10-16T05:15:03;14.40;99.90
14755;DHT22;7469;50.906;6.952;2022-10-16T05:17:31;14.40;99.90
14755;DHT22;7469;50.906;6.952;2022-10-16T05:20:01;14.40;99.90
14755;DHT22;7469;50.906;6.952;2022-10-16T05:22:29;14.40;99.90
14755;DHT22;7469;50.906;6.952;2022-10-16T05:24:57;14.40;99.90
14755;DHT22;7469;50.906;6.952;2022-10-16T05:27:25;14.40;99.90
14755;DHT22;7469;50.906;6.952;2022-10-16T05:29:54;14.40;99.90
14755;DHT22;7469;50.906;6.952;2022-10-16T05:32:22;14.40;99.90
14755;DHT22;7469;50.906;6.952;2022-10-16T05:34:50;14.40;99.90
14755;DHT22;7469;50.906;6.952;2022-10-16T05:37:20;14.30;99.90
14755;DHT22;7469;50.906;6.952;2022-10-16T05:39:48;14.30;99.90
14755;DHT22;7469;50.906;6.952;2022-10-16T05:42:16;14.30;99.90
14755;DHT22;7469;50.906;6.952;2022-10-16T05:44:43;14.30;99.90
14755;DHT22;7469;50.906;6.952;2022-10-16T05:47:12;14.30;99.90
14755;DHT22;7469;50.906;6.952;2022-10-16T05:49:40;14.20;99.90
14755;DHT22;7469;50.906;6.952;2022-10-16T05:52:08;14.20;99.90
14755;DHT22;7469;50.906;6.952;2022-10-16T05:54:37;14.10;99.90
14755;DHT22;7469;50.906;6.952;2022-10-16T05:57:05;14.10;99.90
14755;DHT22;7469;50.906;6.952;2022-10-16T05:59:33;14.10;99.90
14755;DHT22;7469;50.906;6.952;2022-10-16T06:02:01;14.10;99.90
14755;DHT22;7469;50.906;6.952;2022-10-16T06:04:30;14.00;99.90
14755;DHT22;7469;50.906;6.952;2022-10-16T06:06:58;14.00;99.90
14755;DHT22;7469;50.906;6.952;2022-10-16T06:09:27;14.00;99.90
14755;DHT22;7469;50.906;6.952;2022-10-16T06:11:57;13.90;99.90
14755;DHT22;7469;50.906;6.952;2022-10-16T06:14:25;14.00;99.90
14755;DHT22;7469;50.906;6.952;2022-10-16T06:16:53;13.90;99.90
14755;DHT22;7469;50.906;6.952;2022-10-16T06:19:21;13.90;99.90
14755;DHT22;7469;50.906;6.952;2022-10-16T06:21:49;13.90;99.90
14755;DHT22;7469;50.906;6.952;2022-10-16T06:24:17;13.90;99.90
14755;DHT22;7469;50.906;6.952;2022-10-16T06:26:45;13.80;99.90
14755;DHT22;7469;50.906;6.952;2022-10-16T06:29:14;13.90;99.90
14755;DHT22;7469;50.906;6.952;2022-10-16T06:31:42;13.90;99.90
14755;DHT22;7469;50.906;6.952;2022-10-16T06:34:10;13.90;99.90
14755;DHT22;7469;50.906;6.952;2022-10-16T06:36:39;13.90;99.90
14755;DHT22;7469;50.906;6.952;2022-10-16T06:39:07;14.00;99.90
14755;DHT22;7469;50.906;6.952;2022-10-16T06:41:35;14.00;99.90
14755;DHT22;7469;50.906;6.952;2022-10-16T06:44:05;14.10;99.90
14755;DHT22;7469;50.906;6.952;2022-10-16T06:46:35;14.20;99.90
14755;DHT22;7469;50.906;6.952;2022-10-16T06:49:03;14.20;99.90
14755;DHT22;7469;50.906;6.952;2022-10-16T06:51:31;14.30;99.90
14755;DHT22;7469;50.906;6.952;2022-10-16T06:54:06;14.40;99.90
14755;DHT22;7469;50.906;6.952;2022-10-16T06:56:34;14.50;99.90
14755;DHT22;7469;50.906;6.952;2022-10-16T06:59:02;14.60;99.90
14755;DHT22;7469;50.906;6.952;2022-10-16T07:01:30;14.70;99.90
14755;DHT22;7469;50.906;6.952;2022-10-16T07:04:01;14.80;99.90
14755;DHT22;7469;50.906;6.952;2022-10-16T07:06:32;14.80;99.90
14755;DHT22;7469;50.906;6.952;2022-10-16T07:09:03;14.90;99.90
14755;DHT22;7469;50.906;6.952;2022-10-16T07:11:31;15.00;99.90
14755;DHT22;7469;50.906;6.952;2022-10-16T07:13:59;15.00;99.90
14755;DHT22;7469;50.906;6.952;2022-10-16T07:16:29;15.10;99.90
14755;DHT22;7469;50.906;6.952;2022-10-16T07:18:58;15.20;99.90
14755;DHT22;7469;50.906;6.952;2022-10-16T07:21:29;15.20;99.90
14755;DHT22;7469;50.906;6.952;2022-10-16T07:23:59;15.30;99.90
14755;DHT22;7469;50.906;6.952;2022-10-16T07:26:30;15.30;99.90
14755;DHT22;7469;50.906;6.952;2022-10-16T07:28:58;15.30;99.90
14755;DHT22;7469;50.906;6.952;2022-10-16T07:31:27;15.40;99.90
14755;DHT22;7469;50.906;6.952;2022-10-16T07:33:58;15.40;99.90
14755;DHT22;7469;50.906;6.952;2022-10-16T07:36:27;15.50;99.90
14755;DHT22;7469;50.906;6.952;2022-10-16T07:38:55;15.50;99.90
14755;DHT22;7469;50.906;6.952;2022-10-16T07:41:26;15.60;99.90
14755;DHT22;7469;50.906;6.952;2022-10-16T07:43:55;15.80;99.90
14755;DHT22;7469;50.906;6.952;2022-10-16T07:46:23;15.90;99.90
14755;DHT22;7469;50.906;6.952;2022-10-16T07:48:51;15.90;99.90
14755;DHT22;7469;50.906;6.952;2022-10-16T07:51:23;16.00;99.90
14755;DHT22;7469;50.906;6.952;2022-10-16T07:53:54;16.10;99.90
14755;DHT22;7469;50.906;6.952;2022-10-16T07:56:22;16.10;99.90
14755;DHT22;7469;50.906;6.952;2022-10-16T07:58:50;16.10;99.90
14755;DHT22;7469;50.906;6.952;2022-10-16T08:01:18;16.20;99.90
14755;DHT22;7469;50.906;6.952;2022-10-16T08:03:48;16.20;99.90
14755;DHT22;7469;50.906;6.952;2022-10-16T08:06:17;16.20;99.90
14755;DHT22;7469;50.906;6.952;2022-10-16T08:08:50;16.30;99.90
14755;DHT22;7469;50.906;6.952;2022-10-16T08:11:20;16.30;99.90
14755;DHT22;7469;50.906;6.952;2022-10-16T08:13:48;16.30;99.90
14755;DHT22;7469;50.906;6.952;2022-10-16T08:16:16;16.30;99.90
14755;DHT22;7469;50.906;6.952;2022-10-16T08:18:44;16.40;99.90
14755;DHT22;7469;50.906;6.952;2022-10-16T08:21:14;16.40;99.90
14755;DHT22;7469;50.906;6.952;2022-10-16T08:23:47;16.50;99.90
14755;DHT22;7469;50.906;6.952;2022-10-16T08:26:25;16.60;99.90
14755;DHT22;7469;50.906;6.952;2022-10-16T08:28:53;16.80;99.90
14755;DHT22;7469;50.906;6.952;2022-10-16T08:31:22;16.90;99.90
14755;DHT22;7469;50.906;6.952;2022-10-16T08:33:50;17.10;99.90
14755;DHT22;7469;50.906;6.952;2022-10-16T08:36:19;17.40;99.90
14755;DHT22;7469;50.906;6.952;2022-10-16T08:38:48;17.60;99.90
14755;DHT22;7469;50.906;6.952;2022-10-16T08:41:39;17.80;99.90
14755;DHT22;7469;50.906;6.952;2022-10-16T08:44:31;18.00;99.90
14755;DHT22;7469;50.906;6.952;2022-10-16T08:47:09;18.10;99.90
14755;DHT22;7469;50.906;6.952;2022-10-16T08:49:42;18.40;99.90
14755;DHT22;7469;50.906;6.952;2022-10-16T08:52:12;18.80;99.90
14755;DHT22;7469;50.906;6.952;2022-10-16T08:54:43;19.30;99.90
14755;DHT22;7469;50.906;6.952;2022-10-16T08:57:17;19.90;99.90
14755;DHT22;7469;50.906;6.952;2022-10-16T08:59:50;20.40;99.90
14755;DHT22;7469;50.906;6.952;2022-10-16T09:02:24;21.20;99.90
14755;DHT22;7469;50.906;6.952;2022-10-16T09:05:15;22.10;99.90
14755;DHT22;7469;50.906;6.952;2022-10-16T09:07:48;23.10;99.90
14755;DHT22;7469;50.906;6.952;2022-10-16T09:10:29;24.50;99.90
14755;DHT22;7469;50.906;6.952;2022-10-16T09:13:08;25.80;99.90
14755;DHT22;7469;50.906;6.952;2022-10-16T09:15:43;27.30;99.90
14755;DHT22;7469;50.906;6.952;2022-10-16T09:18:21;28.60;99.90
14755;DHT22;7469;50.906;6.952;2022-10-16T09:21:04;30.00;99.90
14755;DHT22;7469;50.906;6.952;2022-10-16T09:23:37;31.30;97.40
14755;DHT22;7469;50.906;6.952;2022-10-16T09:26:09;32.40;92.30
14755;DHT22;7469;50.906;6.952;2022-10-16T09:28:39;33.00;83.50
14755;DHT22;7469;50.906;6.952;2022-10-16T09:31:13;33.70;76.00
14755;DHT22;7469;50.906;6.952;2022-10-16T09:33:45;34.50;68.30
14755;DHT22;7469;50.906;6.952;2022-10-16T09:36:15;34.70;60.90
14755;DHT22;7469;50.906;6.952;2022-10-16T09:38:43;35.00;56.90
14755;DHT22;7469;50.906;6.952;2022-10-16T09:41:16;35.60;53.60
14755;DHT22;7469;50.906;6.952;2022-10-16T09:43:52;36.30;49.50
14755;DHT22;7469;50.906;6.952;2022-10-16T09:46:25;36.80;47.10
14755;DHT22;7469;50.906;6.952;2022-10-16T09:48:56;37.40;43.90
14755;DHT22;7469;50.906;6.952;2022-10-16T09:51:26;37.70;41.40
14755;DHT22;7469;50.906;6.952;2022-10-16T09:53:57;38.10;38.90
14755;DHT22;7469;50.906;6.952;2022-10-16T09:56:27;38.10;36.50
14755;DHT22;7469;50.906;6.952;2022-10-16T09:58:58;38.00;35.00
14755;DHT22;7469;50.906;6.952;2022-10-16T10:01:31;37.90;34.30
14755;DHT22;7469;50.906;6.952;2022-10-16T10:04:02;38.30;33.70
14755;DHT22;7469;50.906;6.952;2022-10-16T10:06:33;38.80;32.40
14755;DHT22;7469;50.906;6.952;2022-10-16T10:09:06;39.40;31.60
14755;DHT22;7469;50.906;6.952;2022-10-16T10:11:44;39.60;30.00
14755;DHT22;7469;50.906;6.952;2022-10-16T10:14:30;39.40;29.50
14755;DHT22;7469;50.906;6.952;2022-10-16T10:17:18;39.00;29.20
14755;DHT22;7469;50.906;6.952;2022-10-16T10:19:49;39.00;28.60
14755;DHT22;7469;50.906;6.952;2022-10-16T10:22:23;39.10;28.00
14755;DHT22;7469;50.906;6.952;2022-10-16T10:24:56;39.00;26.80
14755;DHT22;7469;50.906;6.952;2022-10-16T10:27:31;38.90;27.10
14755;DHT22;7469;50.906;6.952;2022-10-16T10:30:05;38.70;26.90
14755;DHT22;7469;50.906;6.952;2022-10-16T10:32:40;37.70;26.10
14755;DHT22;7469;50.906;6.952;2022-10-16T10:35:15;36.30;26.80
14755;DHT22;7469;50.906;6.952;2022-10-16T10:38:05;34.90;28.10
14755;DHT22;7469;50.906;6.952;2022-10-16T10:40:49;33.70;29.30
14755;DHT22;7469;50.906;6.952;2022-10-16T10:43:28;32.70;30.40
14755;DHT22;7469;50.906;6.952;2022-10-16T10:46:03;32.10;31.60
14755;DHT22;7469;50.906;6.952;2022-10-16T10:48:47;32.30;32.00
14755;DHT22;7469;50.906;6.952;2022-10-16T10:51:26;32.80;31.60
14755;DHT22;7469;50.906;6.952;2022-10-16T10:54:05;33.80;30.90
14755;DHT22;7469;50.906;6.952;2022-10-16T10:56:43;34.80;30.30
14755;DHT22;7469;50.906;6.952;2022-10-16T10:59:31;35.80;29.30
14755;DHT22;7469;50.906;6.952;2022-10-16T11:02:04;36.00;28.70
14755;DHT22;7469;50.906;6.952;2022-10-16T11:04:54;36.10;28.20
14755;DHT22;7469;50.906;6.952;2022-10-16T11:07:27;35.70;28.10
14755;DHT22;7469;50.906;6.952;2022-10-16T11:09:58;35.50;28.40
14755;DHT22;7469;50.906;6.952;2022-10-16T11:12:29;35.60;28.30
14755;DHT22;7469;50.906;6.952;2022-10-16T11:15:04;35.40;28.30
14755;DHT22;7469;50.906;6.952;2022-10-16T11:17:39;35.10;28.40
14755;DHT22;7469;50.906;6.952;2022-10-16T11:20:14;34.40;28.00
14755;DHT22;7469;50.906;6.952;2022-10-16T11:22:48;33.60;28.60
14755;DHT22;7469;50.906;6.952;2022-10-16T11:25:20;33.60;29.30
14755;DHT22;7469;50.906;6.952;2022-10-16T11:27:54;33.90;29.10
14755;DHT22;7469;50.906;6.952;2022-10-16T11:30:25;34.10;29.30
14755;DHT22;7469;50.906;6.952;2022-10-16T11:33:21;34.40;29.10
14755;DHT22;7469;50.906;6.952;2022-10-16T11:35:55;34.30;28.90
14755;DHT22;7469;50.906;6.952;2022-10-16T11:38:29;34.00;28.90
14755;DHT22;7469;50.906;6.952;2022-10-16T11:41:02;33.30;29.10
14755;DHT22;7469;50.906;6.952;2022-10-16T11:43:36;32.60;29.50
14755;DHT22;7469;50.906;6.952;2022-10-16T11:46:10;32.00;29.90
14755;DHT22;7469;50.906;6.952;2022-10-16T11:48:48;31.50;30.50
14755;DHT22;7469;50.906;6.952;2022-10-16T11:51:22;31.00;31.10
14755;DHT22;7469;50.906;6.952;2022-10-16T11:53:56;30.50;31.30
14755;DHT22;7469;50.906;6.952;2022-10-16T11:56:26;29.90;32.00
14755;DHT22;7469;50.906;6.952;2022-10-16T11:58:58;29.40;32.90
14755;DHT22;7469;50.906;6.952;2022-10-16T12:01:31;29.10;33.60
14755;DHT22;7469;50.906;6.952;2022-10-16T12:04:15;28.80;34.00
14755;DHT22;7469;50.906;6.952;2022-10-16T12:06:47;28.30;34.30
14755;DHT22;7469;50.906;6.952;2022-10-16T12:09:24;27.90;34.90
14755;DHT22;7469;50.906;6.952;2022-10-16T12:11:54;27.40;35.40
14755;DHT22;7469;50.906;6.952;2022-10-16T12:14:36;27.00;36.10
14755;DHT22;7469;50.906;6.952;2022-10-16T12:17:26;26.70;36.80
14755;DHT22;7469;50.906;6.952;2022-10-16T12:20:01;26.40;37.10
14755;DHT22;7469;50.906;6.952;2022-10-16T12:22:47;26.00;37.70
14755;DHT22;7469;50.906;6.952;2022-10-16T12:25:21;25.70;38.20
14755;DHT22;7469;50.906;6.952;2022-10-16T12:27:57;25.40;38.90
14755;DHT22;7469;50.906;6.952;2022-10-16T12:30:29;25.20;39.50
14755;DHT22;7469;50.906;6.952;2022-10-16T12:33:03;25.10;39.90
14755;DHT22;7469;50.906;6.952;2022-10-16T12:35:35;25.00;40.40
14755;DHT22;7469;50.906;6.952;2022-10-16T12:38:17;25.10;40.70
14755;DHT22;7469;50.906;6.952;2022-10-16T12:40:47;25.10;40.50
14755;DHT22;7469;50.906;6.952;2022-10-16T12:43:38;25.00;40.60
14755;DHT22;7469;50.906;6.952;2022-10-16T12:46:22;24.80;41.50
14755;DHT22;7469;50.906;6.952;2022-10-16T12:48:50;24.80;41.40
14755;DHT22;7469;50.906;6.952;2022-10-16T12:51:36;24.80;41.50
14755;DHT22;7469;50.906;6.952;2022-10-16T12:54:13;25.00;41.70
14755;DHT22;7469;50.906;6.952;2022-10-16T12:56:50;25.10;41.70
14755;DHT22;7469;50.906;6.952;2022-10-16T12:59:32;25.20;41.80
14755;DHT22;7469;50.906;6.952;2022-10-16T13:08:22;25.00;42.10
14755;DHT22;7469;50.906;6.952;2022-10-16T13:11:03;24.80;43.00
14755;DHT22;7469;50.906;6.952;2022-10-16T13:14:09;24.60;42.80
14755;DHT22;7469;50.906;6.952;2022-10-16T13:16:51;24.60;43.30
14755;DHT22;7469;50.906;6.952;2022-10-16T13:19:28;24.50;43.20
14755;DHT22;7469;50.906;6.952;2022-10-16T13:22:02;24.40;43.30
14755;DHT22;7469;50.906;6.952;2022-10-16T13:24:47;24.30;43.60
14755;DHT22;7469;50.906;6.952;2022-10-16T13:27:24;24.20;43.70
14755;DHT22;7469;50.906;6.952;2022-10-16T13:30:01;24.00;44.00
14755;DHT22;7469;50.906;6.952;2022-10-16T13:32:30;23.90;44.20
14755;DHT22;7469;50.906;6.952;2022-10-16T13:34:58;23.80;44.60
14755;DHT22;7469;50.906;6.952;2022-10-16T13:37:27;23.60;44.90
14755;DHT22;7469;50.906;6.952;2022-10-16T13:40:11;23.60;45.20
14755;DHT22;7469;50.906;6.952;2022-10-16T13:42:45;23.60;45.50
14755;DHT22;7469;50.906;6.952;2022-10-16T13:45:21;23.50;45.70
14755;DHT22;7469;50.906;6.952;2022-10-16T13:47:49;23.50;46.00
14755;DHT22;7469;50.906;6.952;2022-10-16T13:50:18;23.40;46.30
14755;DHT22;7469;50.906;6.952;2022-10-16T13:52:46;23.30;46.60
14755;DHT22;7469;50.906;6.952;2022-10-16T13:55:18;23.30;46.90
14755;DHT22;7469;50.906;6.952;2022-10-16T13:57:46;23.20;47.30
14755;DHT22;7469;50.906;6.952;2022-10-16T14:00:19;23.10;47.40
14755;DHT22;7469;50.906;6.952;2022-10-16T14:02:52;23.10;47.90
14755;DHT22;7469;50.906;6.952;2022-10-16T14:05:22;23.00;48.30
14755;DHT22;7469;50.906;6.952;2022-10-16T14:07:51;22.80;48.70
14755;DHT22;7469;50.906;6.952;2022-10-16T14:10:24;22.80;49.30
14755;DHT22;7469;50.906;6.952;2022-10-16T14:12:58;22.60;49.80
14755;DHT22;7469;50.906;6.952;2022-10-16T14:15:27;22.60;50.40
14755;DHT22;7469;50.906;6.952;2022-10-16T14:17:58;22.60;50.80
14755;DHT22;7469;50.906;6.952;2022-10-16T14:20:28;22.60;51.20
14755;DHT22;7469;50.906;6.952;2022-10-16T14:23:02;22.50;51.50
14755;DHT22;7469;50.906;6.952;2022-10-16T14:25:32;22.50;52.00
14755;DHT22;7469;50.906;6.952;2022-10-16T14:28:02;22.40;52.50
14755;DHT22;7469;50.906;6.952;2022-10-16T14:30:33;22.30;53.20
14755;DHT22;7469;50.906;6.952;2022-10-16T14:33:03;22.20;54.20
14755;DHT22;7469;50.906;6.952;2022-10-16T14:35:33;22.10;54.90
14755;DHT22;7469;50.906;6.952;2022-10-16T14:38:03;22.20;55.80
14755;DHT22;7469;50.906;6.952;2022-10-16T14:40:35;22.10;56.60
14755;DHT22;7469;50.906;6.952;2022-10-16T14:43:05;22.10;57.50
14755;DHT22;7469;50.906;6.952;2022-10-16T14:45:34;22.10;58.40
14755;DHT22;7469;50.906;6.952;2022-10-16T14:48:06;22.10;59.30
14755;DHT22;7469;50.906;6.952;2022-10-16T14:50:45;22.10;60.40
14755;DHT22;7469;50.906;6.952;2022-10-16T14:53:14;22.00;61.70
14755;DHT22;7469;50.906;6.952;2022-10-16T14:55:44;22.00;63.40
14755;DHT22;7469;50.906;6.952;2022-10-16T14:58:15;21.90;65.20
14755;DHT22;7469;50.906;6.952;2022-10-16T15:00:44;21.90;67.10
14755;DHT22;7469;50.906;6.952;2022-10-16T15:03:13;21.90;69.00
14755;DHT22;7469;50.906;6.952;2022-10-16T15:05:41;21.80;71.20
14755;DHT22;7469;50.906;6.952;2022-10-16T15:08:09;21.80;73.30
14755;DHT22;7469;50.906;6.952;2022-10-16T15:10:42;21.70;75.40
14755;DHT22;7469;50.906;6.952;2022-10-16T15:13:15;21.70;77.70
14755;DHT22;7469;50.906;6.952;2022-10-16T15:15:44;21.60;79.50
14755;DHT22;7469;50.906;6.952;2022-10-16T15:18:12;21.60;81.10
14755;DHT22;7469;50.906;6.952;2022-10-16T15:20:48;21.50;82.50
14755;DHT22;7469;50.906;6.952;2022-10-16T15:23:18;21.40;83.80
14755;DHT22;7469;50.906;6.952;2022-10-16T15:25:47;21.30;84.90
14755;DHT22;7469;50.906;6.952;2022-10-16T15:28:18;21.30;85.90
14755;DHT22;7469;50.906;6.952;2022-10-16T15:30:48;21.20;87.00
14755;DHT22;7469;50.906;6.952;2022-10-16T15:33:18;21.20;88.00
14755;DHT22;7469;50.906;6.952;2022-10-16T15:35:47;21.10;88.80
14755;DHT22;7469;50.906;6.952;2022-10-16T15:38:16;21.10;89.90
14755;DHT22;7469;50.906;6.952;2022-10-16T15:40:45;20.90;90.40
14755;DHT22;7469;50.906;6.952;2022-10-16T15:43:13;20.90;90.80
14755;DHT22;7469;50.906;6.952;2022-10-16T15:45:43;20.80;91.30
14755;DHT22;7469;50.906;6.952;2022-10-16T15:48:12;20.70;91.70
14755;DHT22;7469;50.906;6.952;2022-10-16T15:50:40;20.70;92.10
14755;DHT22;7469;50.906;6.952;2022-10-16T15:53:10;20.70;92.60
14755;DHT22;7469;50.906;6.952;2022-10-16T15:55:38;20.60;92.90
14755;DHT22;7469;50.906;6.952;2022-10-16T15:58:06;20.60;93.30
14755;DHT22;7469;50.906;6.952;2022-10-16T16:00:33;20.50;93.60
14755;DHT22;7469;50.906;6.952;2022-10-16T16:03:03;20.50;94.00
14755;DHT22;7469;50.906;6.952;2022-10-16T16:05:31;20.50;94.40
14755;DHT22;7469;50.906;6.952;2022-10-16T16:08:00;20.40;94.70
14755;DHT22;7469;50.906;6.952;2022-10-16T16:10:28;20.40;95.10
14755;DHT22;7469;50.906;6.952;2022-10-16T16:12:56;20.30;95.50
14755;DHT22;7469;50.906;6.952;2022-10-16T16:15:25;20.30;96.10
14755;DHT22;7469;50.906;6.952;2022-10-16T16:17:53;20.20;96.50
14755;DHT22;7469;50.906;6.952;2022-10-16T16:20:23;20.20;97.00